Bald Eagle
, Park City
Last Weather Update:10/30/2011 11:00:00 PM
Date
ETo
ETc
Rain
Irrigation
Req
Temp
Max
Temp
Min
Temp
Avg
Avg RH
Avg Wind
Avg Solar
inches
inches
incehs
inches
F
F
F
%
%
watts/m2
9/1/2011 0.23" 0.17" 0.00" 0.17" 70.9° 53.4° 62.3° 28.4% 5.5 MPH 298.1w/m2
9/2/2011 0.18" 0.13" 0.00" 0.13" 70.8° 48.8° 58.2° 24.0% 2.2 MPH 291.6w/m2
9/3/2011 0.18" 0.13" 0.00" 0.13" 70.3° 49.2° 58.9° 27.6% 2.5 MPH 292.8w/m2
9/4/2011 0.18" 0.13" 0.00" 0.13" 73.4° 49.1° 61.1° 24.2% 1.9 MPH 288.4w/m2
9/5/2011 0.14" 0.10" 0.01" 0.09" 70.6° 49.9° 61.1° 65.8% 3.4 MPH 168.5w/m2
9/6/2011 0.14" 0.10" 0.07" 0.04" 65.6° 45.4° 52.5° 67.4% 3.5 MPH 248.7w/m2
9/7/2011 0.16" 0.11" 0.00" 0.11" 66.3° 43.1° 53.5° 56.0% 3.0 MPH 280.3w/m2
9/8/2011 0.15" 0.10" 0.00" 0.10" 66.5° 44.9° 53.9° 58.1% 3.4 MPH 275.1w/m2
9/9/2011 0.13" 0.08" 0.00" 0.08" 66.3° 46.7° 54.9° 55.1% 1.8 MPH 218.9w/m2
9/10/2011 0.12" 0.08" 0.64" -0.43" 68.7° 46.3° 53.4° 56.9% 2.3 MPH 207.1w/m2
9/11/2011 0.11" 0.08" 0.00" 0.08" 63.1° 48.1° 52.9° 59.6% 4.6 MPH 177.5w/m2
9/12/2011 0.15" 0.10" 0.00" 0.10" 64.2° 45.8° 53.1° 62.0% 3.4 MPH 260.9w/m2
9/13/2011 0.11" 0.07" 0.00" 0.07" 63.6° 47.0° 53.8° 52.2% 1.9 MPH 185.2w/m2
9/14/2011 0.09" 0.06" 0.21" -0.11" 64.4° 46.0° 52.1° 74.4% 1.8 MPH 156.3w/m2
9/15/2011 0.12" 0.07" 0.00" 0.07" 62.1° 42.9° 51.4° 65.5% 2.6 MPH 206.3w/m2
9/16/2011 0.12" 0.07" 0.45" -0.29" 62.1° 42.1° 49.8° 89.5% 5.0 MPH 195.1w/m2
9/17/2011 0.09" 0.05" 0.19" -0.10" 55.1° 38.4° 45.3° 61.8% 2.9 MPH 174.0w/m2
9/18/2011 0.13" 0.08" 0.00" 0.08" 61.7° 43.6° 51.1° 55.8% 1.6 MPH 245.5w/m2
9/19/2011 0.15" 0.09" 0.00" 0.09" 64.3° 43.8° 54.6° 31.9% 3.0 MPH 252.2w/m2
9/20/2011 0.15" 0.09" 0.00" 0.09" 62.2° 47.4° 54.4° 52.4% 4.0 MPH 252.9w/m2
9/21/2011 0.15" 0.08" 0.00" 0.08" 62.8° 44.7° 53.1° 44.7% 3.2 MPH 253.0w/m2
9/22/2011 0.15" 0.08" 0.00" 0.08" 67.1° 45.3° 55.0° 18.7% 2.0 MPH 254.5w/m2
9/23/2011 0.16" 0.09" 0.00" 0.09" 67.6° 45.4° 57.1° 26.9% 2.7 MPH 249.0w/m2
9/24/2011 0.13" 0.07" 0.00" 0.07" 67.9° 49.0° 57.6° 27.6% 2.2 MPH 213.6w/m2
9/25/2011 0.16" 0.08" 0.00" 0.08" 70.1° 48.1° 60.0° 33.5% 2.6 MPH 245.7w/m2
9/26/2011 0.11" 0.06" 0.00" 0.06" 66.1° 50.7° 57.1° 48.1% 2.6 MPH 170.3w/m2
9/27/2011 0.15" 0.08" 0.00" 0.08" 68.7° 45.8° 57.3° 30.8% 2.3 MPH 238.8w/m2
9/28/2011 0.15" 0.08" 0.00" 0.08" 70.0° 53.2° 60.2° 38.3% 2.9 MPH 233.3w/m2
9/29/2011 0.14" 0.07" 0.00" 0.07" 70.1° 49.2° 58.5° 33.4% 2.2 MPH 233.1w/m2
9/30/2011 0.14" 0.07" 0.00" 0.07" 74.5° 54.8° 61.5° 34.0% 3.4 MPH 184.4w/m2
Totals: 4.27" 2.67" 1.57" 1.41" 74.5° 38.4° 55.5° 46.8% 2.9 MPH 231.7w/m2